Alma Center, WI

2:30 PM CDT on July 05, 2015 (GMT -0500)
Black River Falls Area | | Change Station
CLOSE
Current Station
Airport
Location: Black River Falls,
Elevation: 837 ft
Nearby Weather Stations

Elev 837 ft 44.25 °N, 90.86 °W | Updated 15 minutes ago

Partly Cloudy
Partly Cloudy
85 °F
Feels Like 84 °F
N
14
Wind Variable Wind from South

Today
High -- | Low -- °F
--% Chance of Precip.
Yesterday
High -- | Low -- °F
Precip. -- in
5:25 AM 8:50 PM
Waning Gibbous, 82% visible
Pressure 29.96 in
Visibility 10.0 miles
Clouds Clear
Heat Index 84 °F
Dew Point 58 °F
Humidity 41%
Rainfall 0.00 in
Snow Depth Not available.
UV 11 out of 12
Pollen 5.00 out of 12
Air Quality Not available.
Flu Activity Not available.
METAR KBCK 051915Z AUTO 17012KT 150V230 10SM CLR 29/15 A2996 RMK AO2 T02930146

More Conditions Fewer Conditions

Pressure 29.96 in
Visibility 10.0 miles
Clouds Clear
Heat Index 84 °F
Dew Point 58 °F
Humidity 41%
Rainfall 0.00 in
Snow Depth Not available.
UV 11 out of 12
Pollen 5.00 out of 12
Air Quality Not available.
Flu Activity Not available.
METAR KBCK 051915Z AUTO 17012KT 150V230 10SM CLR 29/15 A2996 RMK AO2 T02930146

More Conditions Fewer Conditions

10-Day Weather Forecast

×

Almanac

Astronomy

Jul. 05, 2015 Rise Set
Actual Time
Civil Twilight
Nautical Twilight
Astronomical Twilight
Moon
Length of Visible Light
Length of Day
Tomorrow will be .
, % of the Moon is Illuminated

Today's Extremes

State Highs State Lows

Community

WunderPhotos

Upload Photos

1,835,358 photos uploaded!

WunderBlogs® & News

Nearby

Air Quality

  Air Quality AQ Index Pollutant
Not available.

Snow Depth

Station Depth Elevation

Earthquake Activity

City Distance Mag. Time & Date
Minimum magnitude displayed is 2.5.

Coastal Water Temperatures

Place Temperature

Stations

Nearby Weather Stations

Station Location Temp. Windchill Dew Point Humidity Wind Precip. Elev Updated Type